Time;durP1;ratioP1;P1;durP2;ratioP2;P2;SDS_P1;SDS_P2;PMS_P1;PMS_P2;Temp;Humidity;BMP_temperature;BMP_pressure;BME280_temperature;BME280_humidity;BME280_pressure;Samples;Min_cycle;Max_cycle;Signal;HPM_P1;HPM_P2
2023/12/23 00:00:30;;;;;;;1.70;0.80;;;;;;;9.14;44.42;97648.41;5032645;28;20295;-84
2023/12/23 00:02:56;;;;;;;1.83;0.70;;;;;;;9.36;43.85;97647.72;5032415;28;20188;-84
2023/12/23 00:05:23;;;;;;;2.33;0.87;;;;;;;9.34;43.90;97644.38;5032824;28;20261;-84
2023/12/23 00:07:49;;;;;;;1.30;0.60;;;;;;;9.28;43.92;97651.72;5032371;28;20174;-84
2023/12/23 00:10:14;;;;;;;1.37;0.70;;;;;;;9.45;43.58;97658.38;5032772;28;20197;-84
2023/12/23 00:12:40;;;;;;;1.17;0.57;;;;;;;9.53;43.70;97653.44;5032739;28;20692;-84
2023/12/23 00:15:06;;;;;;;1.50;0.57;;;;;;;9.65;43.35;97662.16;5032726;28;20598;-84
2023/12/23 00:17:33;;;;;;;2.67;0.70;;;;;;;9.46;44.00;97661.81;5015290;28;20259;-84
2023/12/23 00:20:00;;;;;;;2.13;0.60;;;;;;;9.58;43.36;97658.31;5031966;28;20186;-84
2023/12/23 00:22:26;;;;;;;2.00;0.60;;;;;;;9.43;43.79;97656.81;5033168;28;20615;-84
2023/12/23 00:24:52;;;;;;;2.73;0.83;;;;;;;9.61;43.84;97642.41;5036460;28;20190;-85
2023/12/23 00:27:18;;;;;;;0.93;0.50;;;;;;;9.62;43.56;97650.13;5036462;28;20545;-84
2023/12/23 00:29:44;;;;;;;1.00;0.40;;;;;;;9.60;43.88;97645.97;5036333;28;20200;-84
2023/12/23 00:32:10;;;;;;;0.83;0.63;;;;;;;9.40;44.24;97638.72;5036046;28;20179;-85
2023/12/23 00:34:36;;;;;;;1.43;0.50;;;;;;;9.34;44.28;97631.31;5018274;28;20201;-84
2023/12/23 00:37:03;;;;;;;1.23;0.77;;;;;;;9.47;44.19;97619.03;5017849;28;20218;-84
2023/12/23 00:39:30;;;;;;;0.80;0.40;;;;;;;9.38;43.84;97591.75;5036550;28;20175;-84
2023/12/23 00:41:57;;;;;;;1.33;0.47;;;;;;;9.54;43.23;97591.50;5018747;28;20206;-84
2023/12/23 00:44:23;;;;;;;0.93;0.50;;;;;;;9.49;43.51;97617.97;5036067;28;20178;-84
2023/12/23 00:46:50;;;;;;;1.27;0.60;;;;;;;9.66;43.07;97622.81;5036393;28;20170;-85
2023/12/23 00:49:16;;;;;;;1.17;0.67;;;;;;;9.57;42.82;97620.03;5018452;28;20255;-84
2023/12/23 00:51:43;;;;;;;1.60;0.70;;;;;;;9.64;41.92;97618.66;5036014;28;20197;-85
2023/12/23 00:54:08;;;;;;;2.20;0.53;;;;;;;9.71;42.06;97622.47;5035695;28;20256;-85
2023/12/23 00:56:35;;;;;;;1.53;0.70;;;;;;;9.74;41.57;97615.25;5035657;28;20186;-84
2023/12/23 00:59:02;;;;;;;2.70;0.87;;;;;;;9.77;42.06;97622.84;5035918;28;20174;-85
2023/12/23 01:01:29;;;;;;;1.90;0.77;;;;;;;9.97;42.38;97618.78;5035243;28;20206;-85
2023/12/23 01:03:55;;;;;;;2.00;0.67;;;;;;;10.13;42.40;97608.03;5035400;28;20671;-85
2023/12/23 01:06:22;;;;;;;1.97;0.90;;;;;;;10.13;42.71;97603.63;5036298;28;20184;-85
2023/12/23 01:08:47;;;;;;;3.50;1.03;;;;;;;9.98;42.75;97583.81;5035822;28;20319;-85
2023/12/23 01:11:13;;;;;;;2.13;1.10;;;;;;;9.89;43.09;97584.50;5035533;28;20261;-85
2023/12/23 01:13:38;;;;;;;6.73;1.70;;;;;;;9.88;42.92;97588.03;5035413;28;20236;-85
2023/12/23 01:16:05;;;;;;;2.93;1.20;;;;;;;9.90;42.63;97591.41;5036004;28;20272;-85
2023/12/23 01:18:32;;;;;;;3.50;1.20;;;;;;;9.93;42.76;97604.25;5035485;28;20191;-85
2023/12/23 01:20:58;;;;;;;1.03;0.70;;;;;;;9.93;42.43;97614.72;5034924;28;20198;-85
2023/12/23 01:23:25;;;;;;;1.53;0.70;;;;;;;9.85;42.71;97623.13;5034653;28;20194;-84
2023/12/23 01:25:52;;;;;;;1.27;0.67;;;;;;;9.77;42.05;97617.63;5035439;28;20179;-85
2023/12/23 01:28:18;;;;;;;1.90;0.90;;;;;;;9.83;41.78;97625.03;5035347;28;20178;-84
2023/12/23 01:30:45;;;;;;;2.80;1.03;;;;;;;9.91;41.49;97634.94;5017495;28;20603;-84
2023/12/23 01:33:11;;;;;;;2.13;0.90;;;;;;;9.79;41.33;97628.81;5035854;28;20182;-84
2023/12/23 01:35:39;;;;;;;1.67;0.67;;;;;;;9.52;41.80;97620.38;5034301;28;20647;-84
2023/12/23 01:38:04;;;;;;;1.47;0.60;;;;;;;9.67;41.35;97629.69;5035107;28;20193;-84
2023/12/23 01:40:32;;;;;;;2.40;0.90;;;;;;;9.52;42.21;97629.97;5035069;28;20661;-85
2023/12/23 01:42:57;;;;;;;1.33;0.73;;;;;;;8.75;43.95;97612.00;5035400;28;20174;-85
2023/12/23 01:45:23;;;;;;;2.20;1.00;;;;;;;8.79;44.65;97618.69;5017580;28;20178;-84
2023/12/23 01:47:52;;;;;;;2.13;1.00;;;;;;;8.59;44.61;97610.44;5034924;28;20222;-84
2023/12/23 01:50:21;;;;;;;3.37;0.90;;;;;;;8.81;44.07;97614.19;5034690;28;20236;-84
2023/12/23 01:52:53;;;;;;;1.43;0.50;;;;;;;8.88;43.53;97608.44;5035182;28;20187;-84
2023/12/23 01:55:19;;;;;;;1.53;0.67;;;;;;;8.85;44.37;97613.03;5035018;28;20188;-84
2023/12/23 01:57:45;;;;;;;1.90;0.80;;;;;;;8.93;43.91;97613.34;5017357;28;20178;-84
2023/12/23 02:00:11;;;;;;;3.20;0.53;;;;;;;8.63;44.66;97604.06;5034814;28;20181;-85
2023/12/23 02:02:40;;;;;;;3.23;0.90;;;;;;;8.66;44.27;97616.09;5034643;28;20560;-84
2023/12/23 02:05:06;;;;;;;1.73;0.73;;;;;;;8.42;44.65;97612.53;5017043;28;20542;-84
2023/12/23 02:07:33;;;;;;;3.37;0.77;;;;;;;8.47;44.05;97600.84;5034621;28;20185;-84
2023/12/23 02:09:59;;;;;;;2.03;0.53;;;;;;;8.41;44.03;97603.06;5016764;28;20185;-84
2023/12/23 02:12:46;;;;;;;1.60;0.70;;;;;;;8.37;44.44;97604.19;5034392;28;20228;-84
2023/12/23 02:15:14;;;;;;;2.03;0.80;;;;;;;8.21;44.49;97574.81;5034276;28;20246;-84
2023/12/23 02:17:41;;;;;;;1.43;0.67;;;;;;;8.18;44.58;97577.63;5034257;28;20186;-84
2023/12/23 02:20:07;;;;;;;2.33;0.83;;;;;;;8.41;44.33;97590.00;5016710;28;20174;-84
2023/12/23 02:22:35;;;;;;;1.50;0.60;;;;;;;8.34;44.55;97592.19;5016892;28;20191;-84
2023/12/23 02:25:00;;;;;;;1.83;0.57;;;;;;;8.20;45.13;97588.81;5034133;28;20654;-84
2023/12/23 02:27:40;;;;;;;1.67;0.70;;;;;;;8.07;44.86;97585.34;5034531;28;20176;-84
2023/12/23 02:30:11;;;;;;;3.50;0.87;;;;;;;8.02;45.29;97589.09;5016695;28;20186;-84
2023/12/23 02:32:39;;;;;;;1.67;1.30;;;;;;;7.80;46.42;97593.25;5034199;28;20534;-84
2023/12/23 02:35:06;;;;;;;1.67;1.10;;;;;;;7.96;45.98;97605.19;5016675;28;20214;-84
2023/12/23 02:37:32;;;;;;;2.40;1.00;;;;;;;8.04;46.20;97584.59;5016611;28;20198;-84
2023/12/23 02:39:57;;;;;;;2.53;0.87;;;;;;;7.82;46.32;97547.84;5033373;28;20260;-84
2023/12/23 02:42:23;;;;;;;1.93;0.90;;;;;;;7.74;46.60;97542.31;5033757;28;20180;-84
2023/12/23 02:44:49;;;;;;;4.40;1.63;;;;;;;8.00;46.25;97554.44;5016505;28;20178;-84
2023/12/23 02:47:14;;;;;;;3.33;1.83;;;;;;;8.14;46.11;97576.16;5033038;28;20176;-84
2023/12/23 02:49:41;;;;;;;3.30;1.23;;;;;;;8.25;46.27;97571.91;5033624;28;20649;-84
2023/12/23 02:52:08;;;;;;;1.70;0.90;;;;;;;8.38;45.90;97574.53;5033740;28;20181;-84
2023/12/23 02:54:38;;;;;;;3.77;1.60;;;;;;;8.43;46.06;97582.88;5033152;28;20206;-84
2023/12/23 02:57:04;;;;;;;7.97;2.37;;;;;;;8.23;45.84;97575.56;5033643;28;20256;-84
2023/12/23 02:59:30;;;;;;;5.33;2.47;;;;;;;8.05;46.38;97570.63;5033853;28;20214;-84
2023/12/23 03:01:56;;;;;;;3.80;2.00;;;;;;;8.13;46.06;97572.72;5033832;28;20202;-84
2023/12/23 03:04:23;;;;;;;1.97;1.03;;;;;;;8.22;45.72;97566.88;5034093;28;20187;-84
2023/12/23 03:06:50;;;;;;;1.83;0.83;;;;;;;8.21;45.89;97561.75;5033740;28;20218;-84
2023/12/23 03:09:16;;;;;;;2.73;1.20;;;;;;;8.03;46.09;97549.03;5016103;28;20182;-84
2023/12/23 03:11:43;;;;;;;3.87;1.60;;;;;;;7.91;46.03;97552.44;5016099;28;20190;-84
2023/12/23 03:14:09;;;;;;;1.90;0.80;;;;;;;7.85;46.49;97542.44;5033297;28;20226;-84
2023/12/23 03:16:35;;;;;;;2.50;1.10;;;;;;;7.94;46.20;97548.78;5016012;28;20610;-84
2023/12/23 03:19:06;;;;;;;2.23;1.17;;;;;;;8.03;45.93;97554.25;5033345;28;20280;-84
2023/12/23 03:21:32;;;;;;;1.57;0.70;;;;;;;7.97;46.23;97548.59;5034152;28;20206;-84
2023/12/23 03:23:59;;;;;;;6.00;1.40;;;;;;;7.90;46.85;97529.94;5015842;28;20171;-84
2023/12/23 03:26:25;;;;;;;1.43;0.90;;;;;;;7.82;47.07;97544.41;5015501;28;20191;-84
2023/12/23 03:28:52;;;;;;;2.60;0.80;;;;;;;7.95;46.67;97537.44;5033820;28;20247;-84
2023/12/23 03:31:19;;;;;;;1.80;0.93;;;;;;;8.05;46.20;97536.72;5033249;28;20710;-84
2023/12/23 03:33:44;;;;;;;1.07;0.67;;;;;;;8.14;46.23;97529.19;5033456;28;20225;-84
2023/12/23 03:36:09;;;;;;;1.40;0.70;;;;;;;8.21;45.51;97533.03;5015803;28;20270;-84
2023/12/23 03:38:35;;;;;;;2.67;1.00;;;;;;;8.13;46.33;97532.72;5033153;28;20184;-84
2023/12/23 03:41:00;;;;;;;1.47;1.00;;;;;;;8.02;46.61;97520.41;5032907;28;20671;-84
2023/12/23 03:43:26;;;;;;;1.27;0.70;;;;;;;7.96;46.63;97519.09;5033538;28;20183;-84
2023/12/23 03:45:52;;;;;;;2.60;1.23;;;;;;;7.94;46.11;97523.56;5015649;28;20194;-84
2023/12/23 03:48:18;;;;;;;2.90;1.33;;;;;;;7.82;47.16;97520.94;5033420;28;20871;-84
2023/12/23 03:50:45;;;;;;;1.50;0.90;;;;;;;7.68;47.08;97526.25;5033290;28;20186;-84
2023/12/23 03:53:11;;;;;;;1.27;0.80;;;;;;;7.37;47.66;97515.22;5015622;28;20175;-84
2023/12/23 03:55:39;;;;;;;1.33;0.77;;;;;;;7.27;47.79;97498.53;5015422;28;20190;-84
2023/12/23 03:58:05;;;;;;;1.10;0.80;;;;;;;7.49;46.74;97497.97;5034148;28;20178;-84
2023/12/23 04:00:30;;;;;;;2.57;0.77;;;;;;;7.59;46.75;97493.81;5036797;28;20557;-84
2023/12/23 04:02:58;;;;;;;2.73;1.47;;;;;;;7.54;47.34;97495.03;5036974;28;20665;-84
2023/12/23 04:05:25;;;;;;;2.27;1.20;;;;;;;7.45;47.45;97491.25;5036927;28;20236;-84
2023/12/23 04:07:51;;;;;;;3.50;1.57;;;;;;;7.49;46.66;97494.50;5036779;28;20252;-84
2023/12/23 04:10:17;;;;;;;1.00;0.73;;;;;;;7.48;46.74;97485.00;5037028;28;20186;-84
2023/12/23 04:12:43;;;;;;;2.60;0.83;;;;;;;7.42;47.10;97486.25;5036494;28;20226;-83
2023/12/23 04:15:10;;;;;;;2.73;1.20;;;;;;;7.55;47.07;97505.34;5019238;28;20187;-84
2023/12/23 04:17:39;;;;;;;2.57;1.07;;;;;;;7.42;47.43;97505.34;5019277;28;20186;-84
2023/12/23 04:20:06;;;;;;;2.23;1.07;;;;;;;7.30;47.46;97487.06;5018820;28;20193;-84
2023/12/23 04:22:34;;;;;;;1.67;0.70;;;;;;;7.32;47.21;97500.81;5036581;28;20292;-84
2023/12/23 04:25:01;;;;;;;1.70;0.63;;;;;;;7.40;47.32;97503.78;5036556;28;20206;-83
2023/12/23 04:27:27;;;;;;;1.73;0.80;;;;;;;7.39;46.91;97502.09;5036459;28;20664;-83
2023/12/23 04:29:53;;;;;;;1.80;0.90;;;;;;;7.34;47.87;97501.56;5036455;28;20174;-83
2023/12/23 04:32:19;;;;;;;2.70;1.03;;;;;;;7.19;47.31;97477.34;5036267;28;20619;-84
2023/12/23 04:34:46;;;;;;;1.53;0.87;;;;;;;6.78;47.75;97481.78;5018929;28;20174;-84
2023/12/23 04:37:12;;;;;;;6.07;3.30;;;;;;;6.67;47.78;97495.50;5036532;28;20260;-83
2023/12/23 04:39:39;;;;;;;2.93;1.60;;;;;;;6.84;48.04;97488.38;5036297;28;20196;-83
2023/12/23 04:42:06;;;;;;;2.50;1.37;;;;;;;6.80;48.36;97478.16;5036157;28;20226;-83
2023/12/23 04:44:31;;;;;;;1.37;0.63;;;;;;;6.86;47.69;97470.88;5035317;28;20268;-83
2023/12/23 04:46:58;;;;;;;2.70;1.03;;;;;;;6.75;48.80;97464.59;5018621;28;20190;-83
2023/12/23 04:49:24;;;;;;;2.40;0.77;;;;;;;6.98;48.07;97480.50;5036050;28;20178;-83
2023/12/23 04:51:51;;;;;;;2.53;0.90;;;;;;;6.80;47.99;97485.97;5036037;28;20198;-83
2023/12/23 04:54:18;;;;;;;2.93;1.27;;;;;;;6.94;47.68;97512.91;5018636;28;20247;-83
2023/12/23 04:56:45;;;;;;;2.13;1.10;;;;;;;7.03;47.34;97507.09;5035721;28;20198;-83
2023/12/23 04:59:12;;;;;;;2.77;1.00;;;;;;;7.07;47.41;97521.59;5018500;28;20174;-83
2023/12/23 05:01:38;;;;;;;1.43;0.80;;;;;;;6.90;47.79;97520.06;5018247;28;20230;-83
2023/12/23 05:04:05;;;;;;;1.60;0.87;;;;;;;6.64;48.28;97506.09;5035896;28;20185;-83
2023/12/23 05:06:32;;;;;;;7.63;3.00;;;;;;;6.55;48.48;97519.66;5035835;28;20693;-83
2023/12/23 05:08:59;;;;;;;9.53;1.70;;;;;;;6.71;47.91;97503.91;5034786;28;20201;-83
2023/12/23 05:11:25;;;;;;;2.07;1.00;;;;;;;6.55;48.89;97504.03;5036248;28;20201;-83
2023/12/23 05:13:52;;;;;;;2.60;1.10;;;;;;;6.37;49.07;97502.59;5017570;28;20252;-83
2023/12/23 05:16:19;;;;;;;9.37;4.10;;;;;;;6.60;48.50;97496.78;5034880;28;20170;-83
2023/12/23 05:18:45;;;;;;;8.87;3.57;;;;;;;6.67;49.21;97484.22;5035562;28;20181;-83
2023/12/23 05:21:10;;;;;;;7.00;3.43;;;;;;;6.74;49.47;97486.34;5035312;28;20572;-83
2023/12/23 05:23:37;;;;;;;4.27;1.80;;;;;;;6.79;49.75;97486.88;5035488;28;20622;-83
2023/12/23 05:26:04;;;;;;;4.53;2.90;;;;;;;6.83;50.17;97479.72;5035431;28;20201;-83
2023/12/23 05:28:29;;;;;;;9.00;2.87;;;;;;;6.87;49.83;97467.31;5034434;28;20644;-83
2023/12/23 05:30:56;;;;;;;6.47;2.93;;;;;;;6.98;49.93;97489.16;5035375;28;20174;-83
2023/12/23 05:33:24;;;;;;;5.43;3.20;;;;;;;7.07;49.46;97488.56;5035572;28;20186;-83
2023/12/23 05:35:51;;;;;;;13.27;4.50;;;;;;;7.09;49.43;97488.47;5035362;28;20186;-83
2023/12/23 05:38:17;;;;;;;10.93;4.83;;;;;;;6.82;50.55;97473.69;5017757;28;20196;-83
2023/12/23 05:40:44;;;;;;;14.50;6.03;;;;;;;6.92;50.60;97488.72;5034936;28;20205;-83
2023/12/23 05:43:11;;;;;;;13.73;5.80;;;;;;;7.00;50.73;97497.69;5034320;28;20262;-83
2023/12/23 05:45:37;;;;;;;11.80;5.20;;;;;;;6.90;50.52;97488.81;5035272;28;20213;-83
2023/12/23 05:48:04;;;;;;;12.47;6.33;;;;;;;6.95;50.94;97493.72;5035006;28;20252;-83
2023/12/23 05:50:30;;;;;;;11.37;4.63;;;;;;;7.02;50.80;97490.66;5035341;28;20179;-83
2023/12/23 05:52:56;;;;;;;8.63;4.37;;;;;;;7.00;50.98;97491.66;5034918;28;20170;-83
2023/12/23 05:55:23;;;;;;;8.33;4.00;;;;;;;7.15;50.40;97488.91;5034848;28;20193;-83
2023/12/23 05:57:49;;;;;;;10.70;3.90;;;;;;;7.03;49.35;97491.47;5034765;28;20665;-83
2023/12/23 06:00:14;;;;;;;8.13;2.83;;;;;;;7.04;49.26;97495.75;5034596;28;20266;-83
2023/12/23 06:02:40;;;;;;;7.43;3.07;;;;;;;7.17;49.66;97474.00;5034560;28;20217;-83
2023/12/23 06:05:06;;;;;;;6.47;2.43;;;;;;;7.33;48.23;97497.31;5034682;28;20189;-83
2023/12/23 06:07:34;;;;;;;7.27;2.53;;;;;;;7.41;48.76;97497.63;5034472;28;20190;-84
2023/12/23 06:10:00;;;;;;;6.83;1.97;;;;;;;7.38;48.54;97501.28;5034627;28;20170;-83
2023/12/23 06:12:26;;;;;;;4.93;2.10;;;;;;;7.46;48.40;97505.13;5016782;28;20178;-83
2023/12/23 06:14:53;;;;;;;10.83;2.40;;;;;;;7.44;49.07;97507.88;5033598;28;20189;-84
2023/12/23 06:17:20;;;;;;;6.40;2.83;;;;;;;7.46;47.86;97505.97;5017072;28;20185;-83
2023/12/23 06:19:45;;;;;;;5.23;2.00;;;;;;;7.51;48.50;97503.91;5016915;28;20646;-83
2023/12/23 06:22:12;;;;;;;2.80;1.30;;;;;;;7.71;47.85;97497.34;5033307;28;20281;-83
2023/12/23 06:24:39;;;;;;;1.47;1.03;;;;;;;7.81;47.17;97475.75;5034199;28;20197;-84
2023/12/23 06:27:05;;;;;;;3.83;1.23;;;;;;;7.98;46.81;97478.06;5034321;28;20219;-83
2023/12/23 06:29:31;;;;;;;2.37;1.13;;;;;;;8.09;46.33;97479.94;5033947;28;20179;-84
2023/12/23 06:31:59;;;;;;;2.70;0.90;;;;;;;8.11;45.75;97482.44;5016774;28;20198;-84
2023/12/23 06:34:25;;;;;;;3.03;1.10;;;;;;;8.34;46.18;97479.09;5033980;28;20634;-83
2023/12/23 06:36:51;;;;;;;2.10;0.83;;;;;;;9.01;45.11;97489.03;5016668;28;20179;-84
2023/12/23 06:39:18;;;;;;;2.27;1.00;;;;;;;9.77;44.11;97483.38;5034076;28;20253;-84
2023/12/23 06:41:45;;;;;;;5.83;2.17;;;;;;;10.98;43.42;97486.91;5034178;28;20265;-84
2023/12/23 06:44:11;;;;;;;2.77;1.10;;;;;;;12.59;39.02;97475.03;5016549;28;20181;-84
2023/12/23 06:46:36;;;;;;;1.27;0.77;;;;;;;13.99;35.94;97463.25;5016487;28;20238;-84
2023/12/23 06:49:03;;;;;;;3.03;1.30;;;;;;;14.54;34.49;97474.72;5033487;28;20186;-84
2023/12/23 06:51:29;;;;;;;3.80;1.13;;;;;;;14.37;34.66;97483.38;5034217;28;20178;-85
2023/12/23 06:53:56;;;;;;;8.40;4.30;;;;;;;13.28;36.44;97468.03;5033847;28;20175;-84
2023/12/23 06:56:22;;;;;;;7.80;3.73;;;;;;;12.85;37.54;97509.56;5016295;28;20180;-84
2023/12/23 06:58:48;;;;;;;10.07;4.57;;;;;;;12.37;38.54;97493.63;5033672;28;20535;-85
2023/12/23 07:01:14;;;;;;;8.87;4.00;;;;;;;11.81;39.10;97489.72;5029876;28;20205;-85
2023/12/23 07:03:42;;;;;;;13.70;6.27;;;;;;;11.51;40.95;97507.00;5033226;28;20195;-85
2023/12/23 07:06:12;;;;;;;11.07;5.33;;;;;;;11.68;41.37;97510.88;5033141;28;20183;-84
2023/12/23 07:08:39;;;;;;;14.37;6.77;;;;;;;11.94;41.27;97500.88;5027991;28;20179;-85
2023/12/23 07:11:05;;;;;;;13.67;5.50;;;;;;;12.25;40.74;97507.81;5019802;28;20258;-84
2023/12/23 07:13:32;;;;;;;9.70;3.93;;;;;;;12.26;39.50;97509.50;5031426;28;20729;-84
2023/12/23 07:15:57;;;;;;;9.77;4.07;;;;;;;12.06;40.04;97489.31;5006906;28;20271;-84
2023/12/23 07:18:22;;;;;;;9.53;4.57;;;;;;;11.92;40.33;97476.53;5014640;28;20199;-84
2023/12/23 07:20:48;;;;;;;11.77;4.30;;;;;;;11.76;40.64;97500.63;5014548;28;20211;-84
2023/12/23 07:23:14;;;;;;;13.20;4.70;;;;;;;11.64;41.01;97515.53;5032861;28;20597;-85
2023/12/23 07:25:39;;;;;;;7.10;3.23;;;;;;;11.52;41.97;97519.19;5031709;28;20190;-85
2023/12/23 07:28:05;;;;;;;10.83;4.23;;;;;;;11.19;41.82;97521.09;5014335;28;20557;-84
2023/12/23 07:30:30;;;;;;;9.60;4.97;;;;;;;10.88;42.64;97502.56;5032546;28;20493;-84
2023/12/23 07:32:56;;;;;;;17.77;6.30;;;;;;;10.72;44.20;97485.53;5030434;28;20244;-85
2023/12/23 07:35:21;;;;;;;14.77;6.87;;;;;;;10.79;44.16;97503.31;5032247;28;20212;-85
2023/12/23 07:37:47;;;;;;;16.40;7.37;;;;;;;10.88;44.62;97509.59;5032141;28;20182;-85
2023/12/23 07:40:12;;;;;;;18.60;6.23;;;;;;;10.94;43.89;97523.06;5032329;28;20266;-85
2023/12/23 07:42:37;;;;;;;11.60;5.40;;;;;;;10.94;43.66;97536.16;5031572;28;20187;-85
2023/12/23 07:45:03;;;;;;;13.13;5.10;;;;;;;11.02;43.92;97530.31;5014400;28;20189;-85
2023/12/23 07:47:30;;;;;;;10.10;4.43;;;;;;;11.15;45.08;97525.75;5006082;28;20279;-85
2023/12/23 07:49:55;;;;;;;13.13;4.90;;;;;;;11.17;44.71;97523.81;5030093;28;20564;-85
2023/12/23 07:52:21;;;;;;;12.20;4.70;;;;;;;11.34;44.30;97522.47;5032104;28;20265;-85
2023/12/23 07:54:46;;;;;;;7.90;4.17;;;;;;;11.53;44.59;97505.09;5032151;28;20183;-85
2023/12/23 07:57:12;;;;;;;10.13;5.07;;;;;;;11.58;43.67;97502.91;5014793;28;20221;-85
2023/12/23 07:59:41;;;;;;;9.10;4.60;;;;;;;11.67;42.96;97511.81;5031646;28;20623;-85
2023/12/23 08:02:06;;;;;;;11.53;4.40;;;;;;;11.64;42.12;97512.91;5029591;28;20222;-85
2023/12/23 08:04:32;;;;;;;11.43;4.63;;;;;;;11.64;43.01;97498.97;5031482;28;20193;-85
2023/12/23 08:06:57;;;;;;;11.77;5.17;;;;;;;11.68;43.63;97484.63;5031723;28;20188;-85
2023/12/23 08:09:25;;;;;;;12.83;5.87;;;;;;;11.80;43.15;97469.69;5031270;28;20730;-86
2023/12/23 08:11:51;;;;;;;11.87;5.77;;;;;;;12.14;43.07;97492.13;5031837;28;20189;-85
2023/12/23 08:14:16;;;;;;;13.03;5.10;;;;;;;12.30;42.47;97489.88;5013860;28;20232;-85
2023/12/23 08:16:42;;;;;;;12.67;5.73;;;;;;;12.23;40.97;97493.97;5032045;28;20196;-85
2023/12/23 08:19:09;;;;;;;12.00;5.40;;;;;;;12.47;40.44;97519.97;5030542;28;20180;-85
2023/12/23 08:21:34;;;;;;;14.30;4.80;;;;;;;12.73;40.89;97524.63;5031370;28;20205;-85
2023/12/23 08:24:03;;;;;;;10.67;4.03;;;;;;;12.93;41.00;97528.13;5031754;28;20189;-86
2023/12/23 08:26:29;;;;;;;8.63;3.73;;;;;;;13.00;39.80;97521.38;5027844;28;20181;-86
2023/12/23 08:28:54;;;;;;;5.03;2.40;;;;;;;13.24;39.98;97529.75;5031206;28;20571;-86
2023/12/23 08:31:20;;;;;;;7.23;3.23;;;;;;;13.37;39.40;97530.34;5031777;28;20609;-86
2023/12/23 08:33:45;;;;;;;5.03;2.30;;;;;;;13.50;38.64;97524.78;5031591;28;20197;-86
2023/12/23 08:36:10;;;;;;;5.30;2.07;;;;;;;13.61;38.02;97515.94;5031347;28;20590;-85
2023/12/23 08:38:36;;;;;;;6.13;2.07;;;;;;;13.73;37.77;97513.00;5031672;28;20190;-85
2023/12/23 08:41:01;;;;;;;5.37;2.40;;;;;;;14.01;38.09;97535.88;5014346;28;20206;-86
2023/12/23 08:43:27;;;;;;;5.83;2.77;;;;;;;14.08;36.13;97534.34;5031506;28;20259;-86
2023/12/23 08:45:52;;;;;;;4.27;1.97;;;;;;;13.99;35.77;97540.44;5035665;28;20277;-86
2023/12/23 08:48:17;;;;;;;8.57;2.80;;;;;;;14.26;37.42;97530.97;5007256;28;20630;-86
2023/12/23 08:50:43;;;;;;;5.87;1.90;;;;;;;14.62;37.34;97530.22;5034368;28;20282;-86
2023/12/23 08:53:08;;;;;;;3.20;1.60;;;;;;;14.69;36.17;97515.47;5034031;28;20174;-86
2023/12/23 08:55:34;;;;;;;5.83;2.30;;;;;;;14.89;36.64;97526.75;5033487;28;20191;-86
2023/12/23 08:57:59;;;;;;;4.33;1.60;;;;;;;15.15;36.67;97533.81;5033257;28;20189;-86
2023/12/23 09:00:26;;;;;;;4.43;1.80;;;;;;;15.27;36.26;97526.53;5034315;28;20183;-86
2023/12/23 09:02:52;;;;;;;22.83;6.43;;;;;;;15.44;35.61;97528.34;5016436;28;20186;-85
2023/12/23 09:05:20;;;;;;;8.43;2.80;;;;;;;15.69;35.66;97521.53;5033615;28;20644;-86
2023/12/23 09:07:45;;;;;;;5.20;2.37;;;;;;;15.77;34.77;97508.41;5034735;28;20182;-86
2023/12/23 09:10:12;;;;;;;6.93;2.40;;;;;;;15.89;35.22;97507.16;5018317;28;20193;-86
2023/12/23 09:12:39;;;;;;;4.87;2.30;;;;;;;16.17;35.35;97510.53;5035380;28;20269;-86
2023/12/23 09:15:06;;;;;;;5.10;2.47;;;;;;;16.27;34.62;97512.06;5036250;28;20155;-87
2023/12/23 09:17:31;;;;;;;8.20;2.87;;;;;;;16.53;34.81;97512.91;5035251;28;20184;-87
2023/12/23 09:19:57;;;;;;;6.80;2.47;;;;;;;16.76;34.06;97501.78;5036105;28;20232;-86
2023/12/23 09:22:23;;;;;;;7.20;2.83;;;;;;;16.93;35.15;97514.09;5035880;28;20529;-89
2023/12/23 09:24:51;;;;;;;6.63;2.33;;;;;;;17.12;34.76;97506.72;5018286;28;20189;-87
2023/12/23 09:27:19;;;;;;;3.27;0.80;;;;;;;17.17;33.84;97495.66;5018012;28;20634;-90
2023/12/23 09:29:46;;;;;;;2.30;1.13;;;;;;;17.29;33.98;97475.84;5017621;28;20632;-88
2023/12/23 09:32:13;;;;;;;3.20;0.90;;;;;;;17.26;32.08;97475.31;5018149;28;20220;-89
2023/12/23 09:34:38;;;;;;;2.47;0.80;;;;;;;17.32;32.60;97494.03;5035150;28;20174;-89
2023/12/23 09:37:05;;;;;;;1.67;0.80;;;;;;;17.57;32.39;97493.13;5035271;28;20178;-89
2023/12/23 09:39:32;;;;;;;2.47;0.67;;;;;;;17.73;32.48;97498.44;5034358;28;20185;-87
2023/12/23 09:41:59;;;;;;;2.13;0.80;;;;;;;17.77;31.94;97499.75;5035052;28;20566;-87
2023/12/23 09:44:25;;;;;;;1.40;0.40;;;;;;;17.64;31.57;97502.06;5017579;28;20178;-88
2023/12/23 09:46:52;;;;;;;1.33;0.50;;;;;;;17.59;32.59;97520.28;5035030;28;20175;-87
2023/12/23 09:49:19;;;;;;;1.63;0.43;;;;;;;17.69;31.33;97543.97;5034815;28;20197;-87
2023/12/23 09:51:44;;;;;;;6.87;1.70;;;;;;;17.84;31.95;97546.81;5035228;28;20244;-87
2023/12/23 09:54:19;;;;;;;4.13;0.90;;;;;;;17.92;33.04;97554.75;5034925;28;20178;-88
2023/12/23 09:56:48;;;;;;;1.53;0.60;;;;;;;18.02;31.91;97564.22;5016669;28;20188;-88
2023/12/23 09:59:15;;;;;;;1.00;0.40;;;;;;;18.24;32.14;97565.34;5018361;28;20256;-87
2023/12/23 10:01:42;;;;;;;1.53;0.43;;;;;;;18.14;32.17;97570.00;5034982;28;20194;-87
2023/12/23 10:04:07;;;;;;;1.80;0.60;;;;;;;17.80;32.69;97581.59;5016869;28;20190;-87
2023/12/23 10:06:33;;;;;;;2.53;0.60;;;;;;;17.95;32.17;97578.31;5035265;28;20175;-88
2023/12/23 10:08:58;;;;;;;1.13;0.60;;;;;;;17.85;31.77;97586.38;5016767;28;20244;-87
2023/12/23 10:11:24;;;;;;;2.10;0.70;;;;;;;17.62;32.56;97590.66;5017930;28;20183;-88
2023/12/23 10:13:51;;;;;;;1.53;0.70;;;;;;;17.67;33.39;97610.38;5016778;28;20590;-86
2023/12/23 10:16:18;;;;;;;0.93;0.33;;;;;;;17.45;33.80;97615.41;5016460;28;20205;-88
2023/12/23 10:18:47;;;;;;;1.20;0.47;;;;;;;17.52;33.08;97627.84;5016455;28;20260;-88
2023/12/23 10:21:15;;;;;;;1.93;0.83;;;;;;;17.40;34.64;97637.06;5034645;28;20190;-88
2023/12/23 10:23:41;;;;;;;2.23;0.97;;;;;;;17.34;34.74;97656.25;5034095;28;20201;-88
2023/12/23 10:26:08;;;;;;;2.47;1.00;;;;;;;17.36;35.75;97643.69;5015929;28;20208;-87
2023/12/23 10:28:35;;;;;;;4.67;0.90;;;;;;;17.30;35.26;97646.13;5017161;28;20182;-87
2023/12/23 10:31:03;;;;;;;2.50;1.10;;;;;;;17.18;34.98;97635.00;5033976;28;20673;-87
2023/12/23 10:33:36;;;;;;;5.23;2.27;;;;;;;17.01;35.43;97630.59;5034163;28;20256;-87
2023/12/23 10:36:05;;;;;;;2.37;1.00;;;;;;;17.25;35.12;97643.97;5033912;28;20223;-88
2023/12/23 10:38:34;;;;;;;5.50;1.60;;;;;;;17.25;35.04;97646.59;5034724;28;20189;-87
2023/12/23 10:41:11;;;;;;;5.50;1.10;;;;;;;17.35;36.07;97657.91;5033958;28;20209;-88
2023/12/23 10:43:39;;;;;;;3.73;1.30;;;;;;;17.31;35.81;97659.22;5033910;28;20209;-88
2023/12/23 10:46:07;;;;;;;2.83;0.77;;;;;;;17.37;35.66;97671.00;5033956;28;20656;-87
2023/12/23 10:48:36;;;;;;;2.47;0.87;;;;;;;17.47;36.33;97671.72;5016246;28;20194;-88
2023/12/23 10:51:03;;;;;;;2.27;1.00;;;;;;;17.31;37.05;97671.63;5016616;28;20174;-87
2023/12/23 10:53:29;;;;;;;2.63;0.80;;;;;;;17.54;36.73;97673.59;5015584;28;20233;-87
2023/12/23 10:55:55;;;;;;;3.53;1.10;;;;;;;17.55;37.64;97682.38;5016264;28;20657;-87
2023/12/23 10:58:21;;;;;;;2.67;0.70;;;;;;;17.27;39.89;97702.88;5033949;28;20190;-88
2023/12/23 11:00:51;;;;;;;1.57;0.60;;;;;;;17.07;40.84;97706.75;5033269;28;20696;-87
2023/12/23 11:03:19;;;;;;;4.40;0.80;;;;;;;16.93;40.88;97704.66;5033912;28;20174;-85
2023/12/23 11:05:47;;;;;;;1.37;0.70;;;;;;;16.81;41.74;97738.50;5033479;28;20182;-87
2023/12/23 11:08:19;;;;;;;1.87;0.70;;;;;;;16.97;41.85;97749.19;5034004;28;20244;-88
2023/12/23 11:10:48;;;;;;;1.43;0.60;;;;;;;17.07;41.24;97754.38;5016316;28;20198;-88
2023/12/23 11:13:15;;;;;;;2.00;0.83;;;;;;;16.71;42.17;97782.72;5015807;28;20291;-87
2023/12/23 11:15:42;;;;;;;0.70;0.40;;;;;;;16.22;42.97;97785.84;5033669;28;20249;-88
2023/12/23 11:18:12;;;;;;;3.10;0.40;;;;;;;15.79;43.45;97808.44;5033360;28;20188;-88
2023/12/23 11:20:49;;;;;;;2.43;1.07;;;;;;;15.69;43.90;97826.13;5033385;28;20233;-89
2023/12/23 11:23:33;;;;;;;0.73;0.30;;;;;;;15.08;44.46;97859.13;5033672;28;20189;-88
2023/12/23 11:26:04;;;;;;;0.77;0.33;;;;;;;14.98;44.85;97859.16;5015880;28;20275;-88
2023/12/23 11:28:36;;;;;;;0.80;0.50;;;;;;;14.74;43.58;97861.34;5033848;28;20572;-89
2023/12/23 11:31:03;;;;;;;4.10;0.63;;;;;;;14.66;42.92;97858.56;5011290;28;20180;-86
2023/12/23 11:36:56;;;;;;;1.30;0.30;;;;;;;14.55;43.57;97879.78;4970547;28;20225;-86